sensor_id;sensor_type;location;lat;lon;timestamp;P1;durP1;ratioP1;P2;durP2;ratioP2
47882;SDS011;37739;50.350;7.578;2022-11-03T00:01:11;9.30;;;2.40;;
47882;SDS011;37739;50.350;7.578;2022-11-03T00:03:36;4.23;;;2.20;;
47882;SDS011;37739;50.350;7.578;2022-11-03T00:06:02;6.17;;;2.20;;
47882;SDS011;37739;50.350;7.578;2022-11-03T00:11:02;9.30;;;2.83;;
47882;SDS011;37739;50.350;7.578;2022-11-03T00:13:39;5.97;;;2.50;;
47882;SDS011;37739;50.350;7.578;2022-11-03T00:16:06;8.80;;;2.80;;
47882;SDS011;37739;50.350;7.578;2022-11-03T00:18:32;4.47;;;2.33;;
47882;SDS011;37739;50.350;7.578;2022-11-03T00:21:02;5.60;;;2.33;;
47882;SDS011;37739;50.350;7.578;2022-11-03T00:23:34;6.63;;;2.60;;
47882;SDS011;37739;50.350;7.578;2022-11-03T00:26:15;6.97;;;2.70;;
47882;SDS011;37739;50.350;7.578;2022-11-03T00:28:57;7.00;;;2.50;;
47882;SDS011;37739;50.350;7.578;2022-11-03T00:31:32;9.17;;;2.47;;
47882;SDS011;37739;50.350;7.578;2022-11-03T00:34:03;7.30;;;2.20;;
47882;SDS011;37739;50.350;7.578;2022-11-03T00:36:30;6.20;;;2.30;;
47882;SDS011;37739;50.350;7.578;2022-11-03T00:39:05;5.73;;;2.23;;
47882;SDS011;37739;50.350;7.578;2022-11-03T00:41:31;6.13;;;2.50;;
47882;SDS011;37739;50.350;7.578;2022-11-03T00:43:59;6.20;;;2.07;;
47882;SDS011;37739;50.350;7.578;2022-11-03T00:46:25;6.53;;;3.17;;
47882;SDS011;37739;50.350;7.578;2022-11-03T00:48:54;6.53;;;2.30;;
47882;SDS011;37739;50.350;7.578;2022-11-03T00:51:20;4.73;;;2.20;;
47882;SDS011;37739;50.350;7.578;2022-11-03T00:53:58;5.17;;;2.10;;
47882;SDS011;37739;50.350;7.578;2022-11-03T00:56:28;5.13;;;1.97;;
47882;SDS011;37739;50.350;7.578;2022-11-03T00:58:59;4.50;;;1.73;;
47882;SDS011;37739;50.350;7.578;2022-11-03T01:01:29;7.27;;;2.37;;
47882;SDS011;37739;50.350;7.578;2022-11-03T01:04:04;5.33;;;1.90;;
47882;SDS011;37739;50.350;7.578;2022-11-03T01:06:49;6.20;;;2.20;;
47882;SDS011;37739;50.350;7.578;2022-11-03T01:09:16;5.30;;;2.17;;
47882;SDS011;37739;50.350;7.578;2022-11-03T01:12:01;4.63;;;2.20;;
47882;SDS011;37739;50.350;7.578;2022-11-03T01:14:33;6.33;;;2.43;;
47882;SDS011;37739;50.350;7.578;2022-11-03T01:17:01;5.83;;;2.40;;
47882;SDS011;37739;50.350;7.578;2022-11-03T01:19:31;8.90;;;2.40;;
47882;SDS011;37739;50.350;7.578;2022-11-03T01:21:56;6.20;;;2.00;;
47882;SDS011;37739;50.350;7.578;2022-11-03T01:24:22;3.30;;;1.80;;
47882;SDS011;37739;50.350;7.578;2022-11-03T01:26:50;6.90;;;2.53;;
47882;SDS011;37739;50.350;7.578;2022-11-03T01:29:16;2.90;;;1.70;;
47882;SDS011;37739;50.350;7.578;2022-11-03T01:31:44;5.30;;;2.23;;
47882;SDS011;37739;50.350;7.578;2022-11-03T01:34:13;5.57;;;2.03;;
47882;SDS011;37739;50.350;7.578;2022-11-03T01:36:40;3.07;;;1.60;;
47882;SDS011;37739;50.350;7.578;2022-11-03T01:39:08;4.10;;;1.93;;
47882;SDS011;37739;50.350;7.578;2022-11-03T01:41:38;4.53;;;1.80;;
47882;SDS011;37739;50.350;7.578;2022-11-03T01:46:35;3.93;;;2.10;;
47882;SDS011;37739;50.350;7.578;2022-11-03T01:49:16;3.73;;;1.80;;
47882;SDS011;37739;50.350;7.578;2022-11-03T01:51:48;8.17;;;2.10;;
47882;SDS011;37739;50.350;7.578;2022-11-03T01:54:20;10.00;;;2.80;;
47882;SDS011;37739;50.350;7.578;2022-11-03T01:56:48;5.03;;;2.57;;
47882;SDS011;37739;50.350;7.578;2022-11-03T01:59:19;5.43;;;1.90;;
47882;SDS011;37739;50.350;7.578;2022-11-03T02:01:48;7.07;;;2.60;;
47882;SDS011;37739;50.350;7.578;2022-11-03T02:04:32;5.63;;;2.53;;
47882;SDS011;37739;50.350;7.578;2022-11-03T02:09:35;6.53;;;2.80;;
47882;SDS011;37739;50.350;7.578;2022-11-03T02:12:01;6.33;;;2.50;;
47882;SDS011;37739;50.350;7.578;2022-11-03T02:14:33;4.60;;;2.47;;
47882;SDS011;37739;50.350;7.578;2022-11-03T02:17:13;5.70;;;2.60;;
47882;SDS011;37739;50.350;7.578;2022-11-03T02:19:48;6.60;;;2.50;;
47882;SDS011;37739;50.350;7.578;2022-11-03T02:25:10;4.97;;;2.27;;
47882;SDS011;37739;50.350;7.578;2022-11-03T02:27:43;6.70;;;2.20;;
47882;SDS011;37739;50.350;7.578;2022-11-03T02:30:11;6.37;;;2.50;;
47882;SDS011;37739;50.350;7.578;2022-11-03T02:32:41;10.10;;;2.70;;
47882;SDS011;37739;50.350;7.578;2022-11-03T02:35:22;8.90;;;2.80;;
47882;SDS011;37739;50.350;7.578;2022-11-03T02:37:55;4.73;;;2.20;;
47882;SDS011;37739;50.350;7.578;2022-11-03T02:40:31;5.70;;;2.60;;
47882;SDS011;37739;50.350;7.578;2022-11-03T02:43:03;5.07;;;2.23;;
47882;SDS011;37739;50.350;7.578;2022-11-03T02:45:32;5.90;;;2.37;;
47882;SDS011;37739;50.350;7.578;2022-11-03T02:47:58;4.87;;;2.43;;
47882;SDS011;37739;50.350;7.578;2022-11-03T02:50:29;4.50;;;2.30;;
47882;SDS011;37739;50.350;7.578;2022-11-03T02:52:59;5.00;;;2.03;;
47882;SDS011;37739;50.350;7.578;2022-11-03T02:55:34;4.13;;;2.20;;
47882;SDS011;37739;50.350;7.578;2022-11-03T03:00:39;7.10;;;2.73;;
47882;SDS011;37739;50.350;7.578;2022-11-03T03:03:36;8.90;;;2.00;;
47882;SDS011;37739;50.350;7.578;2022-11-03T03:06:13;9.90;;;2.33;;
47882;SDS011;37739;50.350;7.578;2022-11-03T03:08:43;7.30;;;2.20;;
47882;SDS011;37739;50.350;7.578;2022-11-03T03:11:12;5.73;;;2.73;;
47882;SDS011;37739;50.350;7.578;2022-11-03T03:13:41;5.13;;;2.37;;
47882;SDS011;37739;50.350;7.578;2022-11-03T03:16:11;6.37;;;2.50;;
47882;SDS011;37739;50.350;7.578;2022-11-03T03:21:18;5.47;;;2.77;;
47882;SDS011;37739;50.350;7.578;2022-11-03T03:24:08;5.57;;;2.43;;
47882;SDS011;37739;50.350;7.578;2022-11-03T03:26:52;7.60;;;2.90;;
47882;SDS011;37739;50.350;7.578;2022-11-03T03:29:25;7.53;;;2.40;;
47882;SDS011;37739;50.350;7.578;2022-11-03T03:31:54;6.10;;;2.80;;
47882;SDS011;37739;50.350;7.578;2022-11-03T03:34:23;5.63;;;2.73;;
47882;SDS011;37739;50.350;7.578;2022-11-03T03:36:52;6.50;;;2.77;;
47882;SDS011;37739;50.350;7.578;2022-11-03T03:39:22;6.57;;;2.73;;
47882;SDS011;37739;50.350;7.578;2022-11-03T03:41:52;5.03;;;2.43;;
47882;SDS011;37739;50.350;7.578;2022-11-03T03:44:25;8.03;;;2.50;;
47882;SDS011;37739;50.350;7.578;2022-11-03T03:46:58;4.70;;;2.07;;
47882;SDS011;37739;50.350;7.578;2022-11-03T03:49:27;5.70;;;2.10;;
47882;SDS011;37739;50.350;7.578;2022-11-03T03:51:52;4.60;;;2.70;;
47882;SDS011;37739;50.350;7.578;2022-11-03T03:54:18;4.80;;;2.23;;
47882;SDS011;37739;50.350;7.578;2022-11-03T03:59:31;6.90;;;2.37;;
47882;SDS011;37739;50.350;7.578;2022-11-03T04:01:57;7.30;;;2.53;;
47882;SDS011;37739;50.350;7.578;2022-11-03T04:04:23;6.87;;;2.30;;
47882;SDS011;37739;50.350;7.578;2022-11-03T04:06:49;6.10;;;2.60;;
47882;SDS011;37739;50.350;7.578;2022-11-03T04:09:34;5.30;;;2.57;;
47882;SDS011;37739;50.350;7.578;2022-11-03T04:12:02;5.23;;;2.47;;
47882;SDS011;37739;50.350;7.578;2022-11-03T04:14:46;6.33;;;3.03;;
47882;SDS011;37739;50.350;7.578;2022-11-03T04:17:49;5.07;;;2.30;;
47882;SDS011;37739;50.350;7.578;2022-11-03T04:20:36;4.90;;;2.73;;
47882;SDS011;37739;50.350;7.578;2022-11-03T04:23:20;4.37;;;2.43;;
47882;SDS011;37739;50.350;7.578;2022-11-03T04:25:49;5.57;;;2.27;;
47882;SDS011;37739;50.350;7.578;2022-11-03T04:28:17;6.80;;;2.63;;
47882;SDS011;37739;50.350;7.578;2022-11-03T04:30:45;5.40;;;2.60;;
47882;SDS011;37739;50.350;7.578;2022-11-03T04:33:17;5.53;;;2.63;;
47882;SDS011;37739;50.350;7.578;2022-11-03T04:35:44;6.60;;;2.87;;
47882;SDS011;37739;50.350;7.578;2022-11-03T04:40:47;6.23;;;2.60;;
47882;SDS011;37739;50.350;7.578;2022-11-03T04:43:19;5.10;;;2.60;;
47882;SDS011;37739;50.350;7.578;2022-11-03T04:45:48;7.30;;;2.83;;
47882;SDS011;37739;50.350;7.578;2022-11-03T04:48:18;5.53;;;2.87;;
47882;SDS011;37739;50.350;7.578;2022-11-03T04:50:48;5.53;;;2.60;;
47882;SDS011;37739;50.350;7.578;2022-11-03T04:53:18;7.60;;;3.00;;
47882;SDS011;37739;50.350;7.578;2022-11-03T04:55:47;9.27;;;3.07;;
47882;SDS011;37739;50.350;7.578;2022-11-03T05:00:40;3.67;;;2.10;;
47882;SDS011;37739;50.350;7.578;2022-11-03T05:03:06;3.03;;;2.20;;
47882;SDS011;37739;50.350;7.578;2022-11-03T05:05:38;7.57;;;2.77;;
47882;SDS011;37739;50.350;7.578;2022-11-03T05:08:04;5.10;;;2.80;;
47882;SDS011;37739;50.350;7.578;2022-11-03T05:10:32;7.47;;;3.03;;
47882;SDS011;37739;50.350;7.578;2022-11-03T05:12:58;6.50;;;3.03;;
47882;SDS011;37739;50.350;7.578;2022-11-03T05:15:28;3.90;;;2.10;;
47882;SDS011;37739;50.350;7.578;2022-11-03T05:18:00;5.13;;;2.73;;
47882;SDS011;37739;50.350;7.578;2022-11-03T05:20:36;5.50;;;2.67;;
47882;SDS011;37739;50.350;7.578;2022-11-03T05:23:08;7.17;;;2.33;;
47882;SDS011;37739;50.350;7.578;2022-11-03T05:25:39;10.70;;;3.30;;
47882;SDS011;37739;50.350;7.578;2022-11-03T05:28:23;4.10;;;2.93;;
47882;SDS011;37739;50.350;7.578;2022-11-03T05:30:49;3.83;;;2.23;;
47882;SDS011;37739;50.350;7.578;2022-11-03T05:33:17;5.85;;;2.33;;
47882;SDS011;37739;50.350;7.578;2022-11-03T05:35:46;7.80;;;3.10;;
47882;SDS011;37739;50.350;7.578;2022-11-03T05:38:12;6.37;;;3.10;;
47882;SDS011;37739;50.350;7.578;2022-11-03T05:40:40;6.00;;;3.70;;
47882;SDS011;37739;50.350;7.578;2022-11-03T05:43:07;9.03;;;3.20;;
47882;SDS011;37739;50.350;7.578;2022-11-03T05:45:37;4.40;;;3.50;;
47882;SDS011;37739;50.350;7.578;2022-11-03T05:50:51;7.60;;;2.93;;
47882;SDS011;37739;50.350;7.578;2022-11-03T05:53:26;9.90;;;2.80;;
47882;SDS011;37739;50.350;7.578;2022-11-03T05:55:53;5.80;;;2.07;;
47882;SDS011;37739;50.350;7.578;2022-11-03T05:58:24;5.30;;;3.00;;
47882;SDS011;37739;50.350;7.578;2022-11-03T06:00:56;6.40;;;2.33;;
47882;SDS011;37739;50.350;7.578;2022-11-03T06:03:25;4.57;;;2.50;;
47882;SDS011;37739;50.350;7.578;2022-11-03T06:05:56;5.07;;;2.67;;
47882;SDS011;37739;50.350;7.578;2022-11-03T06:08:25;5.53;;;2.57;;
47882;SDS011;37739;50.350;7.578;2022-11-03T06:10:57;5.10;;;3.30;;
47882;SDS011;37739;50.350;7.578;2022-11-03T06:13:34;5.20;;;2.73;;
47882;SDS011;37739;50.350;7.578;2022-11-03T06:16:05;4.93;;;2.27;;
47882;SDS011;37739;50.350;7.578;2022-11-03T06:18:50;5.53;;;2.70;;
47882;SDS011;37739;50.350;7.578;2022-11-03T06:21:18;4.17;;;2.97;;
47882;SDS011;37739;50.350;7.578;2022-11-03T06:23:48;5.43;;;2.57;;
47882;SDS011;37739;50.350;7.578;2022-11-03T06:26:24;3.23;;;2.00;;
47882;SDS011;37739;50.350;7.578;2022-11-03T06:28:52;5.70;;;2.23;;
47882;SDS011;37739;50.350;7.578;2022-11-03T06:31:29;6.03;;;2.43;;
47882;SDS011;37739;50.350;7.578;2022-11-03T06:33:57;4.93;;;2.33;;
47882;SDS011;37739;50.350;7.578;2022-11-03T06:36:28;4.80;;;2.87;;
47882;SDS011;37739;50.350;7.578;2022-11-03T06:39:02;7.90;;;2.83;;
47882;SDS011;37739;50.350;7.578;2022-11-03T06:41:34;5.73;;;2.27;;
47882;SDS011;37739;50.350;7.578;2022-11-03T06:44:01;5.03;;;2.50;;
47882;SDS011;37739;50.350;7.578;2022-11-03T06:46:42;4.90;;;1.93;;
47882;SDS011;37739;50.350;7.578;2022-11-03T06:49:22;7.30;;;2.53;;
47882;SDS011;37739;50.350;7.578;2022-11-03T06:51:55;4.17;;;2.27;;
47882;SDS011;37739;50.350;7.578;2022-11-03T06:54:25;3.87;;;2.40;;
47882;SDS011;37739;50.350;7.578;2022-11-03T06:56:51;4.77;;;2.40;;
47882;SDS011;37739;50.350;7.578;2022-11-03T06:59:21;9.40;;;2.70;;
47882;SDS011;37739;50.350;7.578;2022-11-03T07:01:50;5.13;;;2.73;;
47882;SDS011;37739;50.350;7.578;2022-11-03T07:04:19;3.63;;;2.30;;
47882;SDS011;37739;50.350;7.578;2022-11-03T07:06:47;5.17;;;2.40;;
47882;SDS011;37739;50.350;7.578;2022-11-03T07:09:18;5.83;;;2.73;;
47882;SDS011;37739;50.350;7.578;2022-11-03T07:11:47;6.00;;;2.40;;
47882;SDS011;37739;50.350;7.578;2022-11-03T07:14:20;3.47;;;2.00;;
47882;SDS011;37739;50.350;7.578;2022-11-03T07:16:55;4.13;;;2.20;;
47882;SDS011;37739;50.350;7.578;2022-11-03T07:19:24;5.00;;;2.30;;
47882;SDS011;37739;50.350;7.578;2022-11-03T07:24:24;7.30;;;2.93;;
47882;SDS011;37739;50.350;7.578;2022-11-03T07:27:01;5.50;;;2.60;;
47882;SDS011;37739;50.350;7.578;2022-11-03T07:29:27;7.53;;;2.83;;
47882;SDS011;37739;50.350;7.578;2022-11-03T07:31:57;7.70;;;3.07;;
47882;SDS011;37739;50.350;7.578;2022-11-03T07:34:25;7.07;;;2.80;;
47882;SDS011;37739;50.350;7.578;2022-11-03T07:36:56;7.33;;;3.40;;
47882;SDS011;37739;50.350;7.578;2022-11-03T07:39:25;8.33;;;3.37;;
47882;SDS011;37739;50.350;7.578;2022-11-03T07:41:56;6.20;;;3.00;;
47882;SDS011;37739;50.350;7.578;2022-11-03T07:44:23;9.03;;;2.83;;
47882;SDS011;37739;50.350;7.578;2022-11-03T07:46:51;5.17;;;2.80;;
47882;SDS011;37739;50.350;7.578;2022-11-03T07:49:23;8.53;;;2.77;;
47882;SDS011;37739;50.350;7.578;2022-11-03T07:51:51;4.13;;;2.67;;
47882;SDS011;37739;50.350;7.578;2022-11-03T07:54:21;5.53;;;2.93;;
47882;SDS011;37739;50.350;7.578;2022-11-03T07:56:57;6.53;;;3.00;;
47882;SDS011;37739;50.350;7.578;2022-11-03T07:59:31;6.00;;;2.80;;
47882;SDS011;37739;50.350;7.578;2022-11-03T08:02:01;5.70;;;2.77;;
47882;SDS011;37739;50.350;7.578;2022-11-03T08:04:39;6.33;;;3.27;;
47882;SDS011;37739;50.350;7.578;2022-11-03T08:07:07;7.77;;;2.77;;
47882;SDS011;37739;50.350;7.578;2022-11-03T08:09:32;5.80;;;2.60;;
47882;SDS011;37739;50.350;7.578;2022-11-03T08:11:57;6.03;;;3.00;;
47882;SDS011;37739;50.350;7.578;2022-11-03T08:14:25;6.53;;;2.70;;
47882;SDS011;37739;50.350;7.578;2022-11-03T08:16:51;4.57;;;2.40;;
47882;SDS011;37739;50.350;7.578;2022-11-03T08:19:17;7.97;;;3.13;;
47882;SDS011;37739;50.350;7.578;2022-11-03T08:21:42;6.67;;;2.83;;
47882;SDS011;37739;50.350;7.578;2022-11-03T08:24:07;6.00;;;2.83;;
47882;SDS011;37739;50.350;7.578;2022-11-03T08:26:33;4.67;;;2.60;;
47882;SDS011;37739;50.350;7.578;2022-11-03T08:29:00;6.83;;;2.97;;
47882;SDS011;37739;50.350;7.578;2022-11-03T08:31:26;5.80;;;2.97;;
47882;SDS011;37739;50.350;7.578;2022-11-03T08:33:54;3.50;;;2.30;;
47882;SDS011;37739;50.350;7.578;2022-11-03T08:36:19;5.53;;;2.93;;
47882;SDS011;37739;50.350;7.578;2022-11-03T08:38:46;4.93;;;2.50;;
47882;SDS011;37739;50.350;7.578;2022-11-03T08:41:12;8.83;;;3.03;;
47882;SDS011;37739;50.350;7.578;2022-11-03T08:43:37;2.70;;;2.40;;
47882;SDS011;37739;50.350;7.578;2022-11-03T08:46:02;6.13;;;3.33;;
47882;SDS011;37739;50.350;7.578;2022-11-03T08:48:30;7.70;;;2.93;;
47882;SDS011;37739;50.350;7.578;2022-11-03T08:50:55;6.57;;;2.97;;
47882;SDS011;37739;50.350;7.578;2022-11-03T08:53:24;7.00;;;3.17;;
47882;SDS011;37739;50.350;7.578;2022-11-03T08:55:54;5.23;;;2.90;;
47882;SDS011;37739;50.350;7.578;2022-11-03T08:58:20;6.10;;;2.70;;
47882;SDS011;37739;50.350;7.578;2022-11-03T09:00:49;6.60;;;2.77;;
47882;SDS011;37739;50.350;7.578;2022-11-03T09:03:15;6.03;;;2.90;;
47882;SDS011;37739;50.350;7.578;2022-11-03T09:05:45;7.73;;;3.57;;
47882;SDS011;37739;50.350;7.578;2022-11-03T09:08:13;7.30;;;2.70;;
47882;SDS011;37739;50.350;7.578;2022-11-03T09:10:38;2.77;;;2.20;;
47882;SDS011;37739;50.350;7.578;2022-11-03T09:13:03;6.07;;;3.40;;
47882;SDS011;37739;50.350;7.578;2022-11-03T09:15:32;7.50;;;3.17;;
47882;SDS011;37739;50.350;7.578;2022-11-03T09:17:57;8.33;;;3.37;;
47882;SDS011;37739;50.350;7.578;2022-11-03T09:20:25;6.60;;;3.43;;
47882;SDS011;37739;50.350;7.578;2022-11-03T09:22:53;5.50;;;3.27;;
47882;SDS011;37739;50.350;7.578;2022-11-03T09:25:21;5.87;;;3.57;;
47882;SDS011;37739;50.350;7.578;2022-11-03T09:27:48;8.50;;;3.43;;
47882;SDS011;37739;50.350;7.578;2022-11-03T09:30:14;6.03;;;3.90;;
47882;SDS011;37739;50.350;7.578;2022-11-03T09:32:42;6.30;;;3.77;;
47882;SDS011;37739;50.350;7.578;2022-11-03T09:35:07;6.93;;;3.77;;
47882;SDS011;37739;50.350;7.578;2022-11-03T09:37:33;9.90;;;4.57;;
47882;SDS011;37739;50.350;7.578;2022-11-03T09:39:59;6.97;;;4.47;;
47882;SDS011;37739;50.350;7.578;2022-11-03T09:42:28;6.00;;;3.77;;
47882;SDS011;37739;50.350;7.578;2022-11-03T09:44:58;7.37;;;4.30;;
47882;SDS011;37739;50.350;7.578;2022-11-03T09:47:28;6.87;;;3.93;;
47882;SDS011;37739;50.350;7.578;2022-11-03T09:50:09;6.73;;;3.60;;
47882;SDS011;37739;50.350;7.578;2022-11-03T09:52:41;8.40;;;3.50;;
47882;SDS011;37739;50.350;7.578;2022-11-03T09:55:14;7.60;;;3.27;;
47882;SDS011;37739;50.350;7.578;2022-11-03T09:57:41;7.47;;;3.97;;
47882;SDS011;37739;50.350;7.578;2022-11-03T10:00:12;8.97;;;3.47;;
47882;SDS011;37739;50.350;7.578;2022-11-03T10:02:42;4.00;;;3.60;;
47882;SDS011;37739;50.350;7.578;2022-11-03T10:05:15;6.80;;;4.17;;
47882;SDS011;37739;50.350;7.578;2022-11-03T10:07:52;5.70;;;4.00;;
47882;SDS011;37739;50.350;7.578;2022-11-03T10:10:21;5.53;;;3.90;;
47882;SDS011;37739;50.350;7.578;2022-11-03T10:12:52;5.77;;;4.47;;
47882;SDS011;37739;50.350;7.578;2022-11-03T10:15:21;6.27;;;3.50;;
47882;SDS011;37739;50.350;7.578;2022-11-03T10:17:47;5.07;;;3.50;;
47882;SDS011;37739;50.350;7.578;2022-11-03T10:20:19;4.50;;;3.13;;
47882;SDS011;37739;50.350;7.578;2022-11-03T10:22:49;5.30;;;3.60;;
47882;SDS011;37739;50.350;7.578;2022-11-03T10:25:27;6.80;;;3.00;;
47882;SDS011;37739;50.350;7.578;2022-11-03T10:33:30;5.70;;;3.90;;
47882;SDS011;37739;50.350;7.578;2022-11-03T10:35:59;6.57;;;3.27;;
47882;SDS011;37739;50.350;7.578;2022-11-03T10:38:29;5.07;;;3.10;;
47882;SDS011;37739;50.350;7.578;2022-11-03T10:41:11;3.33;;;3.03;;
47882;SDS011;37739;50.350;7.578;2022-11-03T10:43:41;5.93;;;3.10;;
47882;SDS011;37739;50.350;7.578;2022-11-03T10:46:12;5.43;;;4.27;;
47882;SDS011;37739;50.350;7.578;2022-11-03T10:48:40;6.90;;;4.03;;
47882;SDS011;37739;50.350;7.578;2022-11-03T10:51:08;6.33;;;4.13;;
47882;SDS011;37739;50.350;7.578;2022-11-03T10:53:36;6.03;;;3.53;;
47882;SDS011;37739;50.350;7.578;2022-11-03T10:56:01;8.40;;;3.33;;
47882;SDS011;37739;50.350;7.578;2022-11-03T10:58:27;4.17;;;3.77;;
47882;SDS011;37739;50.350;7.578;2022-11-03T11:00:58;5.53;;;3.40;;
47882;SDS011;37739;50.350;7.578;2022-11-03T11:03:23;6.80;;;3.77;;
47882;SDS011;37739;50.350;7.578;2022-11-03T11:05:51;5.33;;;3.20;;
47882;SDS011;37739;50.350;7.578;2022-11-03T11:08:21;4.07;;;3.20;;
47882;SDS011;37739;50.350;7.578;2022-11-03T11:10:47;6.53;;;3.40;;
47882;SDS011;37739;50.350;7.578;2022-11-03T11:20:53;7.70;;;4.40;;
47882;SDS011;37739;50.350;7.578;2022-11-03T11:31:39;5.67;;;3.27;;
47882;SDS011;37739;50.350;7.578;2022-11-03T11:39:12;7.87;;;3.30;;
47882;SDS011;37739;50.350;7.578;2022-11-03T11:42:13;5.53;;;3.73;;
47882;SDS011;37739;50.350;7.578;2022-11-03T11:57:49;6.33;;;3.60;;
47882;SDS011;37739;50.350;7.578;2022-11-03T12:00:25;5.73;;;3.87;;
47882;SDS011;37739;50.350;7.578;2022-11-03T12:02:57;5.40;;;4.20;;
47882;SDS011;37739;50.350;7.578;2022-11-03T12:05:25;6.43;;;3.77;;
47882;SDS011;37739;50.350;7.578;2022-11-03T12:07:54;11.87;;;4.20;;
47882;SDS011;37739;50.350;7.578;2022-11-03T12:10:25;5.77;;;3.50;;
47882;SDS011;37739;50.350;7.578;2022-11-03T12:12:53;5.60;;;3.53;;
47882;SDS011;37739;50.350;7.578;2022-11-03T12:18:33;6.87;;;4.13;;
47882;SDS011;37739;50.350;7.578;2022-11-03T12:21:08;4.40;;;3.60;;
47882;SDS011;37739;50.350;7.578;2022-11-03T12:26:11;4.77;;;3.53;;
47882;SDS011;37739;50.350;7.578;2022-11-03T12:28:41;4.13;;;3.40;;
47882;SDS011;37739;50.350;7.578;2022-11-03T12:31:09;9.00;;;4.33;;
47882;SDS011;37739;50.350;7.578;2022-11-03T12:33:37;6.30;;;3.90;;
47882;SDS011;37739;50.350;7.578;2022-11-03T12:36:02;5.17;;;3.57;;
47882;SDS011;37739;50.350;7.578;2022-11-03T12:38:28;4.13;;;3.30;;
47882;SDS011;37739;50.350;7.578;2022-11-03T12:40:58;6.50;;;3.63;;
47882;SDS011;37739;50.350;7.578;2022-11-03T12:43:47;5.13;;;3.40;;
47882;SDS011;37739;50.350;7.578;2022-11-03T12:46:16;4.80;;;4.13;;
47882;SDS011;37739;50.350;7.578;2022-11-03T12:48:46;4.20;;;3.07;;
47882;SDS011;37739;50.350;7.578;2022-11-03T12:51:12;4.40;;;3.20;;
47882;SDS011;37739;50.350;7.578;2022-11-03T12:53:42;4.40;;;3.83;;
47882;SDS011;37739;50.350;7.578;2022-11-03T12:56:08;4.20;;;3.67;;
47882;SDS011;37739;50.350;7.578;2022-11-03T12:58:34;9.17;;;4.47;;
47882;SDS011;37739;50.350;7.578;2022-11-03T13:01:03;7.20;;;4.90;;
47882;SDS011;37739;50.350;7.578;2022-11-03T13:03:31;4.90;;;4.33;;
47882;SDS011;37739;50.350;7.578;2022-11-03T13:05:58;5.40;;;4.50;;
47882;SDS011;37739;50.350;7.578;2022-11-03T13:08:24;4.60;;;4.20;;
47882;SDS011;37739;50.350;7.578;2022-11-03T13:10:50;5.90;;;3.73;;
47882;SDS011;37739;50.350;7.578;2022-11-03T13:13:16;5.33;;;4.40;;
47882;SDS011;37739;50.350;7.578;2022-11-03T13:15:44;6.37;;;5.07;;
47882;SDS011;37739;50.350;7.578;2022-11-03T13:18:12;4.03;;;3.70;;
47882;SDS011;37739;50.350;7.578;2022-11-03T13:20:37;8.97;;;5.20;;
47882;SDS011;37739;50.350;7.578;2022-11-03T13:23:03;5.80;;;4.20;;
47882;SDS011;37739;50.350;7.578;2022-11-03T13:25:28;5.40;;;4.50;;
47882;SDS011;37739;50.350;7.578;2022-11-03T13:27:54;6.07;;;4.20;;
47882;SDS011;37739;50.350;7.578;2022-11-03T13:30:22;5.73;;;4.77;;
47882;SDS011;37739;50.350;7.578;2022-11-03T13:32:49;6.60;;;4.30;;
47882;SDS011;37739;50.350;7.578;2022-11-03T13:35:14;5.23;;;3.83;;
47882;SDS011;37739;50.350;7.578;2022-11-03T13:37:43;7.03;;;4.60;;
47882;SDS011;37739;50.350;7.578;2022-11-03T13:40:11;5.23;;;4.53;;
47882;SDS011;37739;50.350;7.578;2022-11-03T13:42:37;5.73;;;4.43;;
47882;SDS011;37739;50.350;7.578;2022-11-03T13:45:03;6.60;;;4.47;;
47882;SDS011;37739;50.350;7.578;2022-11-03T13:47:31;6.20;;;3.50;;
47882;SDS011;37739;50.350;7.578;2022-11-03T13:49:57;5.03;;;4.43;;
47882;SDS011;37739;50.350;7.578;2022-11-03T13:52:25;6.07;;;4.20;;
47882;SDS011;37739;50.350;7.578;2022-11-03T13:54:51;6.87;;;4.13;;
47882;SDS011;37739;50.350;7.578;2022-11-03T13:57:16;6.50;;;3.60;;
47882;SDS011;37739;50.350;7.578;2022-11-03T13:59:42;4.47;;;3.70;;
47882;SDS011;37739;50.350;7.578;2022-11-03T14:02:08;6.37;;;4.40;;
47882;SDS011;37739;50.350;7.578;2022-11-03T14:04:36;4.30;;;3.60;;
47882;SDS011;37739;50.350;7.578;2022-11-03T14:07:02;5.70;;;3.87;;
47882;SDS011;37739;50.350;7.578;2022-11-03T14:09:31;6.67;;;4.20;;
47882;SDS011;37739;50.350;7.578;2022-11-03T14:11:57;4.63;;;3.63;;
47882;SDS011;37739;50.350;7.578;2022-11-03T14:14:41;4.50;;;3.83;;
47882;SDS011;37739;50.350;7.578;2022-11-03T14:17:06;6.67;;;3.77;;
47882;SDS011;37739;50.350;7.578;2022-11-03T14:19:32;7.80;;;4.00;;
47882;SDS011;37739;50.350;7.578;2022-11-03T14:21:59;4.97;;;3.20;;
47882;SDS011;37739;50.350;7.578;2022-11-03T14:24:27;5.10;;;3.57;;
47882;SDS011;37739;50.350;7.578;2022-11-03T14:26:54;5.00;;;3.40;;
47882;SDS011;37739;50.350;7.578;2022-11-03T14:29:20;3.83;;;3.13;;
47882;SDS011;37739;50.350;7.578;2022-11-03T14:31:45;4.30;;;3.60;;
47882;SDS011;37739;50.350;7.578;2022-11-03T14:34:10;5.77;;;3.80;;
47882;SDS011;37739;50.350;7.578;2022-11-03T14:36:38;6.30;;;4.03;;
47882;SDS011;37739;50.350;7.578;2022-11-03T14:39:03;6.23;;;3.53;;
47882;SDS011;37739;50.350;7.578;2022-11-03T14:41:29;3.83;;;3.40;;
47882;SDS011;37739;50.350;7.578;2022-11-03T14:44:18;4.53;;;3.03;;
47882;SDS011;37739;50.350;7.578;2022-11-03T14:46:45;4.23;;;3.00;;
47882;SDS011;37739;50.350;7.578;2022-11-03T14:49:13;7.40;;;3.97;;
47882;SDS011;37739;50.350;7.578;2022-11-03T14:51:38;5.83;;;3.60;;
47882;SDS011;37739;50.350;7.578;2022-11-03T14:54:03;3.97;;;3.30;;
47882;SDS011;37739;50.350;7.578;2022-11-03T14:56:29;5.23;;;3.73;;
47882;SDS011;37739;50.350;7.578;2022-11-03T14:58:56;5.40;;;3.50;;
47882;SDS011;37739;50.350;7.578;2022-11-03T15:01:22;5.23;;;4.07;;
47882;SDS011;37739;50.350;7.578;2022-11-03T15:03:50;5.00;;;3.47;;
47882;SDS011;37739;50.350;7.578;2022-11-03T15:06:15;5.10;;;3.80;;
47882;SDS011;37739;50.350;7.578;2022-11-03T15:08:40;6.90;;;4.03;;
47882;SDS011;37739;50.350;7.578;2022-11-03T15:11:06;9.00;;;4.67;;
47882;SDS011;37739;50.350;7.578;2022-11-03T15:13:33;5.83;;;3.93;;
47882;SDS011;37739;50.350;7.578;2022-11-03T15:15:59;6.17;;;4.13;;
47882;SDS011;37739;50.350;7.578;2022-11-03T15:18:27;3.93;;;3.00;;
47882;SDS011;37739;50.350;7.578;2022-11-03T15:20:52;7.10;;;4.60;;
47882;SDS011;37739;50.350;7.578;2022-11-03T15:23:18;4.20;;;3.50;;
47882;SDS011;37739;50.350;7.578;2022-11-03T15:25:43;4.77;;;3.50;;
47882;SDS011;37739;50.350;7.578;2022-11-03T15:28:09;4.93;;;4.50;;
47882;SDS011;37739;50.350;7.578;2022-11-03T15:30:38;4.80;;;4.30;;
47882;SDS011;37739;50.350;7.578;2022-11-03T15:33:03;4.50;;;3.73;;
47882;SDS011;37739;50.350;7.578;2022-11-03T15:35:31;4.60;;;3.80;;
47882;SDS011;37739;50.350;7.578;2022-11-03T15:37:58;4.43;;;4.03;;
47882;SDS011;37739;50.350;7.578;2022-11-03T15:40:26;6.70;;;5.00;;
47882;SDS011;37739;50.350;7.578;2022-11-03T15:42:51;7.70;;;4.50;;
47882;SDS011;37739;50.350;7.578;2022-11-03T15:45:17;6.00;;;4.70;;
47882;SDS011;37739;50.350;7.578;2022-11-03T15:47:45;6.30;;;4.70;;
47882;SDS011;37739;50.350;7.578;2022-11-03T15:50:11;8.30;;;5.23;;
47882;SDS011;37739;50.350;7.578;2022-11-03T15:52:40;7.17;;;4.63;;
47882;SDS011;37739;50.350;7.578;2022-11-03T15:55:08;5.83;;;4.73;;
47882;SDS011;37739;50.350;7.578;2022-11-03T15:57:34;5.93;;;5.10;;
47882;SDS011;37739;50.350;7.578;2022-11-03T16:00:03;7.93;;;5.13;;
47882;SDS011;37739;50.350;7.578;2022-11-03T16:02:30;7.77;;;6.03;;
47882;SDS011;37739;50.350;7.578;2022-11-03T16:05:00;7.03;;;5.10;;
47882;SDS011;37739;50.350;7.578;2022-11-03T16:07:27;6.80;;;5.77;;
47882;SDS011;37739;50.350;7.578;2022-11-03T16:09:53;6.93;;;4.77;;
47882;SDS011;37739;50.350;7.578;2022-11-03T16:12:21;6.87;;;5.30;;
47882;SDS011;37739;50.350;7.578;2022-11-03T16:14:49;7.50;;;5.30;;
47882;SDS011;37739;50.350;7.578;2022-11-03T16:17:15;7.60;;;4.97;;